sensor_id;sensor_type;location;lat;lon;timestamp;temperature;humidity
65207;SHT31;58477;48.072;11.970;2023-04-24T00:01:23;9.58;96.33
65207;SHT31;58477;48.072;11.970;2023-04-24T00:03:48;9.57;96.96
65207;SHT31;58477;48.072;11.970;2023-04-24T00:06:14;9.57;97.33
65207;SHT31;58477;48.072;11.970;2023-04-24T00:08:42;9.50;96.87
65207;SHT31;58477;48.072;11.970;2023-04-24T00:11:08;9.53;97.09
65207;SHT31;58477;48.072;11.970;2023-04-24T00:13:34;9.43;97.33
65207;SHT31;58477;48.072;11.970;2023-04-24T00:16:00;9.37;97.26
65207;SHT31;58477;48.072;11.970;2023-04-24T00:18:26;9.39;97.48
65207;SHT31;58477;48.072;11.970;2023-04-24T00:20:51;9.37;97.26
65207;SHT31;58477;48.072;11.970;2023-04-24T00:23:17;9.33;97.54
65207;SHT31;58477;48.072;11.970;2023-04-24T00:25:42;9.36;97.59
65207;SHT31;58477;48.072;11.970;2023-04-24T00:28:08;9.36;97.92
65207;SHT31;58477;48.072;11.970;2023-04-24T00:30:33;9.30;97.35
65207;SHT31;58477;48.072;11.970;2023-04-24T00:32:59;9.32;97.67
65207;SHT31;58477;48.072;11.970;2023-04-24T00:35:24;9.27;97.93
65207;SHT31;58477;48.072;11.970;2023-04-24T00:37:50;9.30;97.91
65207;SHT31;58477;48.072;11.970;2023-04-24T00:40:15;9.20;97.86
65207;SHT31;58477;48.072;11.970;2023-04-24T00:42:43;9.24;97.91
65207;SHT31;58477;48.072;11.970;2023-04-24T00:45:09;9.22;98.14
65207;SHT31;58477;48.072;11.970;2023-04-24T00:47:34;9.22;97.97
65207;SHT31;58477;48.072;11.970;2023-04-24T00:50:04;9.27;98.12
65207;SHT31;58477;48.072;11.970;2023-04-24T00:52:29;9.29;97.86
65207;SHT31;58477;48.072;11.970;2023-04-24T00:54:57;9.20;97.79
65207;SHT31;58477;48.072;11.970;2023-04-24T00:57:22;9.19;98.07
65207;SHT31;58477;48.072;11.970;2023-04-24T00:59:49;9.18;97.68
65207;SHT31;58477;48.072;11.970;2023-04-24T01:02:15;9.15;97.79
65207;SHT31;58477;48.072;11.970;2023-04-24T01:04:41;9.10;97.72
65207;SHT31;58477;48.072;11.970;2023-04-24T01:07:07;9.08;97.91
65207;SHT31;58477;48.072;11.970;2023-04-24T01:09:37;9.15;97.57
65207;SHT31;58477;48.072;11.970;2023-04-24T01:12:03;9.13;97.25
65207;SHT31;58477;48.072;11.970;2023-04-24T01:14:29;9.09;97.30
65207;SHT31;58477;48.072;11.970;2023-04-24T01:16:55;9.12;97.24
65207;SHT31;58477;48.072;11.970;2023-04-24T01:19:22;9.02;97.18
65207;SHT31;58477;48.072;11.970;2023-04-24T01:21:50;8.95;96.53
65207;SHT31;58477;48.072;11.970;2023-04-24T01:24:17;8.96;97.13
65207;SHT31;58477;48.072;11.970;2023-04-24T01:26:44;8.92;96.67
65207;SHT31;58477;48.072;11.970;2023-04-24T01:29:11;8.93;96.52
65207;SHT31;58477;48.072;11.970;2023-04-24T01:31:37;8.86;97.07
65207;SHT31;58477;48.072;11.970;2023-04-24T01:34:03;8.83;96.24
65207;SHT31;58477;48.072;11.970;2023-04-24T01:36:30;8.85;96.69
65207;SHT31;58477;48.072;11.970;2023-04-24T01:38:56;8.82;96.45
65207;SHT31;58477;48.072;11.970;2023-04-24T01:41:24;8.78;96.89
65207;SHT31;58477;48.072;11.970;2023-04-24T01:43:50;8.76;96.62
65207;SHT31;58477;48.072;11.970;2023-04-24T01:46:18;8.76;96.69
65207;SHT31;58477;48.072;11.970;2023-04-24T01:48:45;8.75;96.40
65207;SHT31;58477;48.072;11.970;2023-04-24T01:51:10;8.78;95.85
65207;SHT31;58477;48.072;11.970;2023-04-24T01:53:36;8.76;96.39
65207;SHT31;58477;48.072;11.970;2023-04-24T01:56:02;8.69;96.11
65207;SHT31;58477;48.072;11.970;2023-04-24T01:58:28;8.67;96.14
65207;SHT31;58477;48.072;11.970;2023-04-24T02:00:56;8.64;96.66
65207;SHT31;58477;48.072;11.970;2023-04-24T02:03:22;8.65;96.17
65207;SHT31;58477;48.072;11.970;2023-04-24T02:05:48;8.59;95.87
65207;SHT31;58477;48.072;11.970;2023-04-24T02:08:13;8.62;94.97
65207;SHT31;58477;48.072;11.970;2023-04-24T02:10:39;8.59;95.21
65207;SHT31;58477;48.072;11.970;2023-04-24T02:13:04;8.58;95.07
65207;SHT31;58477;48.072;11.970;2023-04-24T02:15:30;8.55;95.34
65207;SHT31;58477;48.072;11.970;2023-04-24T02:17:55;8.57;95.12
65207;SHT31;58477;48.072;11.970;2023-04-24T02:20:21;8.57;94.55
65207;SHT31;58477;48.072;11.970;2023-04-24T02:22:46;8.57;94.67
65207;SHT31;58477;48.072;11.970;2023-04-24T02:25:12;8.55;95.36
65207;SHT31;58477;48.072;11.970;2023-04-24T02:27:37;8.52;94.17
65207;SHT31;58477;48.072;11.970;2023-04-24T02:30:05;8.55;94.52
65207;SHT31;58477;48.072;11.970;2023-04-24T02:32:31;8.55;94.45
65207;SHT31;58477;48.072;11.970;2023-04-24T02:34:56;8.49;94.46
65207;SHT31;58477;48.072;11.970;2023-04-24T02:37:21;8.47;94.62
65207;SHT31;58477;48.072;11.970;2023-04-24T02:39:47;8.44;94.85
65207;SHT31;58477;48.072;11.970;2023-04-24T02:42:12;8.41;95.15
65207;SHT31;58477;48.072;11.970;2023-04-24T02:44:38;8.44;94.91
65207;SHT31;58477;48.072;11.970;2023-04-24T02:47:03;8.51;93.97
65207;SHT31;58477;48.072;11.970;2023-04-24T02:49:29;8.48;94.61
65207;SHT31;58477;48.072;11.970;2023-04-24T02:51:55;8.47;94.13
65207;SHT31;58477;48.072;11.970;2023-04-24T02:54:20;8.42;94.94
65207;SHT31;58477;48.072;11.970;2023-04-24T02:56:46;8.45;94.10
65207;SHT31;58477;48.072;11.970;2023-04-24T02:59:11;8.42;94.47
65207;SHT31;58477;48.072;11.970;2023-04-24T03:01:37;8.47;94.39
65207;SHT31;58477;48.072;11.970;2023-04-24T03:04:02;8.40;94.57
65207;SHT31;58477;48.072;11.970;2023-04-24T03:06:28;8.40;95.15
65207;SHT31;58477;48.072;11.970;2023-04-24T03:08:54;8.38;94.97
65207;SHT31;58477;48.072;11.970;2023-04-24T03:11:19;8.41;94.61
65207;SHT31;58477;48.072;11.970;2023-04-24T03:13:45;8.42;94.44
65207;SHT31;58477;48.072;11.970;2023-04-24T03:16:10;8.37;94.89
65207;SHT31;58477;48.072;11.970;2023-04-24T03:18:36;8.31;95.32
65207;SHT31;58477;48.072;11.970;2023-04-24T03:21:03;8.37;95.39
65207;SHT31;58477;48.072;11.970;2023-04-24T03:23:29;8.35;95.52
65207;SHT31;58477;48.072;11.970;2023-04-24T03:25:55;8.31;95.94
65207;SHT31;58477;48.072;11.970;2023-04-24T03:28:20;8.31;95.69
65207;SHT31;58477;48.072;11.970;2023-04-24T03:30:58;8.28;95.89
65207;SHT31;58477;48.072;11.970;2023-04-24T03:33:27;8.31;96.07
65207;SHT31;58477;48.072;11.970;2023-04-24T03:35:58;8.28;95.80
65207;SHT31;58477;48.072;11.970;2023-04-24T03:38:25;8.25;96.29
65207;SHT31;58477;48.072;11.970;2023-04-24T03:41:16;8.23;96.10
65207;SHT31;58477;48.072;11.970;2023-04-24T03:43:46;8.25;96.25
65207;SHT31;58477;48.072;11.970;2023-04-24T03:46:11;8.24;96.72
65207;SHT31;58477;48.072;11.970;2023-04-24T03:48:41;8.18;96.66
65207;SHT31;58477;48.072;11.970;2023-04-24T03:51:08;8.24;96.40
65207;SHT31;58477;48.072;11.970;2023-04-24T03:53:35;8.23;97.00
65207;SHT31;58477;48.072;11.970;2023-04-24T03:56:01;8.25;96.82
65207;SHT31;58477;48.072;11.970;2023-04-24T03:58:28;8.27;97.08
65207;SHT31;58477;48.072;11.970;2023-04-24T04:00:54;8.25;96.50
65207;SHT31;58477;48.072;11.970;2023-04-24T04:03:51;8.27;96.72
65207;SHT31;58477;48.072;11.970;2023-04-24T04:06:21;8.25;96.94
65207;SHT31;58477;48.072;11.970;2023-04-24T04:08:48;8.20;96.98
65207;SHT31;58477;48.072;11.970;2023-04-24T04:11:13;8.21;97.00
65207;SHT31;58477;48.072;11.970;2023-04-24T04:13:39;8.18;97.29
65207;SHT31;58477;48.072;11.970;2023-04-24T04:16:05;8.21;97.29
65207;SHT31;58477;48.072;11.970;2023-04-24T04:18:31;8.28;97.48
65207;SHT31;58477;48.072;11.970;2023-04-24T04:20:56;8.21;97.63
65207;SHT31;58477;48.072;11.970;2023-04-24T04:23:22;8.23;97.47
65207;SHT31;58477;48.072;11.970;2023-04-24T04:26:00;8.18;97.36
65207;SHT31;58477;48.072;11.970;2023-04-24T04:28:36;8.21;97.64
65207;SHT31;58477;48.072;11.970;2023-04-24T04:31:03;8.18;97.58
65207;SHT31;58477;48.072;11.970;2023-04-24T04:33:29;8.24;97.70
65207;SHT31;58477;48.072;11.970;2023-04-24T04:35:54;8.24;97.42
65207;SHT31;58477;48.072;11.970;2023-04-24T04:38:23;8.20;97.22
65207;SHT31;58477;48.072;11.970;2023-04-24T04:41:11;8.24;97.47
65207;SHT31;58477;48.072;11.970;2023-04-24T04:43:37;8.27;97.94
65207;SHT31;58477;48.072;11.970;2023-04-24T04:46:05;8.25;97.25
65207;SHT31;58477;48.072;11.970;2023-04-24T04:48:42;8.28;97.14
65207;SHT31;58477;48.072;11.970;2023-04-24T04:51:08;8.28;97.07
65207;SHT31;58477;48.072;11.970;2023-04-24T04:53:34;8.27;97.09
65207;SHT31;58477;48.072;11.970;2023-04-24T04:56:01;8.24;97.32
65207;SHT31;58477;48.072;11.970;2023-04-24T04:58:33;8.28;97.29
65207;SHT31;58477;48.072;11.970;2023-04-24T05:01:00;8.33;97.55
65207;SHT31;58477;48.072;11.970;2023-04-24T05:03:30;8.31;97.62
65207;SHT31;58477;48.072;11.970;2023-04-24T05:06:06;8.37;96.84
65207;SHT31;58477;48.072;11.970;2023-04-24T05:08:34;8.38;96.78
65207;SHT31;58477;48.072;11.970;2023-04-24T05:11:01;8.42;96.96
65207;SHT31;58477;48.072;11.970;2023-04-24T05:13:28;8.44;97.01
65207;SHT31;58477;48.072;11.970;2023-04-24T05:15:55;8.51;97.17
65207;SHT31;58477;48.072;11.970;2023-04-24T05:18:20;8.55;96.41
65207;SHT31;58477;48.072;11.970;2023-04-24T05:20:46;8.57;96.68
65207;SHT31;58477;48.072;11.970;2023-04-24T05:23:12;8.65;96.77
65207;SHT31;58477;48.072;11.970;2023-04-24T05:25:40;8.68;96.93
65207;SHT31;58477;48.072;11.970;2023-04-24T05:28:09;8.59;97.10
65207;SHT31;58477;48.072;11.970;2023-04-24T05:30:35;8.52;97.38
65207;SHT31;58477;48.072;11.970;2023-04-24T05:33:01;8.48;97.47
65207;SHT31;58477;48.072;11.970;2023-04-24T05:35:27;8.52;97.00
65207;SHT31;58477;48.072;11.970;2023-04-24T05:37:52;8.52;97.18
65207;SHT31;58477;48.072;11.970;2023-04-24T05:40:18;8.52;97.25
65207;SHT31;58477;48.072;11.970;2023-04-24T05:42:43;8.52;97.35
65207;SHT31;58477;48.072;11.970;2023-04-24T05:45:09;8.47;96.98
65207;SHT31;58477;48.072;11.970;2023-04-24T05:47:41;8.52;97.18
65207;SHT31;58477;48.072;11.970;2023-04-24T05:50:06;8.54;97.26
65207;SHT31;58477;48.072;11.970;2023-04-24T05:52:32;8.51;97.22
65207;SHT31;58477;48.072;11.970;2023-04-24T05:55:00;8.58;97.13
65207;SHT31;58477;48.072;11.970;2023-04-24T05:57:31;8.62;96.79
65207;SHT31;58477;48.072;11.970;2023-04-24T06:00:01;8.68;97.01
65207;SHT31;58477;48.072;11.970;2023-04-24T06:02:28;8.78;96.24
65207;SHT31;58477;48.072;11.970;2023-04-24T06:04:58;8.89;95.20
65207;SHT31;58477;48.072;11.970;2023-04-24T06:07:25;9.03;95.24
65207;SHT31;58477;48.072;11.970;2023-04-24T06:09:54;9.06;94.54
65207;SHT31;58477;48.072;11.970;2023-04-24T06:12:20;9.29;93.96
65207;SHT31;58477;48.072;11.970;2023-04-24T06:14:59;9.36;93.87
65207;SHT31;58477;48.072;11.970;2023-04-24T06:17:49;9.56;93.24
65207;SHT31;58477;48.072;11.970;2023-04-24T06:20:16;9.78;93.68
65207;SHT31;58477;48.072;11.970;2023-04-24T06:22:41;9.90;92.06
65207;SHT31;58477;48.072;11.970;2023-04-24T06:25:07;9.86;91.57
65207;SHT31;58477;48.072;11.970;2023-04-24T06:27:32;9.93;90.81
65207;SHT31;58477;48.072;11.970;2023-04-24T06:29:58;9.94;91.40
65207;SHT31;58477;48.072;11.970;2023-04-24T06:32:24;9.87;92.14
65207;SHT31;58477;48.072;11.970;2023-04-24T06:34:51;9.84;91.29
65207;SHT31;58477;48.072;11.970;2023-04-24T06:37:18;9.77;90.97
65207;SHT31;58477;48.072;11.970;2023-04-24T06:39:44;9.74;90.16
65207;SHT31;58477;48.072;11.970;2023-04-24T06:42:09;9.61;90.43
65207;SHT31;58477;48.072;11.970;2023-04-24T06:44:35;9.53;90.22
65207;SHT31;58477;48.072;11.970;2023-04-24T06:47:07;9.48;89.72
65207;SHT31;58477;48.072;11.970;2023-04-24T06:49:34;9.47;90.40
65207;SHT31;58477;48.072;11.970;2023-04-24T06:51:59;9.50;91.07
65207;SHT31;58477;48.072;11.970;2023-04-24T06:54:25;9.54;91.24
65207;SHT31;58477;48.072;11.970;2023-04-24T06:56:50;9.76;90.76
65207;SHT31;58477;48.072;11.970;2023-04-24T06:59:17;9.70;89.84
65207;SHT31;58477;48.072;11.970;2023-04-24T07:01:42;9.73;90.86
65207;SHT31;58477;48.072;11.970;2023-04-24T07:04:08;9.78;90.47
65207;SHT31;58477;48.072;11.970;2023-04-24T07:06:33;9.99;90.10
65207;SHT31;58477;48.072;11.970;2023-04-24T07:09:00;10.01;89.38
65207;SHT31;58477;48.072;11.970;2023-04-24T07:11:26;10.11;90.03
65207;SHT31;58477;48.072;11.970;2023-04-24T07:13:54;10.01;88.96
65207;SHT31;58477;48.072;11.970;2023-04-24T07:16:20;10.05;89.19
65207;SHT31;58477;48.072;11.970;2023-04-24T07:18:45;9.90;88.70
65207;SHT31;58477;48.072;11.970;2023-04-24T07:21:11;9.80;89.22
65207;SHT31;58477;48.072;11.970;2023-04-24T07:23:36;9.74;89.65
65207;SHT31;58477;48.072;11.970;2023-04-24T07:26:02;9.78;88.98
65207;SHT31;58477;48.072;11.970;2023-04-24T07:28:28;9.83;88.58
65207;SHT31;58477;48.072;11.970;2023-04-24T07:30:56;10.04;89.35
65207;SHT31;58477;48.072;11.970;2023-04-24T07:33:22;10.17;87.86
65207;SHT31;58477;48.072;11.970;2023-04-24T07:35:48;10.53;88.18
65207;SHT31;58477;48.072;11.970;2023-04-24T07:38:13;11.07;86.28
65207;SHT31;58477;48.072;11.970;2023-04-24T07:40:39;11.57;85.73
65207;SHT31;58477;48.072;11.970;2023-04-24T07:43:04;12.17;84.65
65207;SHT31;58477;48.072;11.970;2023-04-24T07:45:30;12.26;84.19
65207;SHT31;58477;48.072;11.970;2023-04-24T07:47:56;12.14;84.35
65207;SHT31;58477;48.072;11.970;2023-04-24T07:50:22;12.42;84.34
65207;SHT31;58477;48.072;11.970;2023-04-24T07:52:47;12.90;81.74
65207;SHT31;58477;48.072;11.970;2023-04-24T07:55:13;12.57;82.13
65207;SHT31;58477;48.072;11.970;2023-04-24T07:57:38;11.97;83.58
65207;SHT31;58477;48.072;11.970;2023-04-24T08:00:04;11.82;84.51
65207;SHT31;58477;48.072;11.970;2023-04-24T08:02:37;11.54;84.60
65207;SHT31;58477;48.072;11.970;2023-04-24T08:05:02;11.46;84.95
65207;SHT31;58477;48.072;11.970;2023-04-24T08:07:29;11.75;84.69
65207;SHT31;58477;48.072;11.970;2023-04-24T08:09:54;12.04;83.78
65207;SHT31;58477;48.072;11.970;2023-04-24T08:12:20;12.01;82.62
65207;SHT31;58477;48.072;11.970;2023-04-24T08:14:45;12.26;83.09
65207;SHT31;58477;48.072;11.970;2023-04-24T08:17:11;12.24;82.45
65207;SHT31;58477;48.072;11.970;2023-04-24T08:19:36;11.97;83.17
65207;SHT31;58477;48.072;11.970;2023-04-24T08:22:02;12.01;84.93
65207;SHT31;58477;48.072;11.970;2023-04-24T08:24:29;11.54;84.59
65207;SHT31;58477;48.072;11.970;2023-04-24T08:26:54;11.37;84.30
65207;SHT31;58477;48.072;11.970;2023-04-24T08:29:22;11.47;84.68
65207;SHT31;58477;48.072;11.970;2023-04-24T08:31:47;11.44;84.20
65207;SHT31;58477;48.072;11.970;2023-04-24T08:34:12;11.41;85.13
65207;SHT31;58477;48.072;11.970;2023-04-24T08:36:38;11.30;85.36
65207;SHT31;58477;48.072;11.970;2023-04-24T08:39:06;10.95;84.59
65207;SHT31;58477;48.072;11.970;2023-04-24T08:41:33;10.80;85.65
65207;SHT31;58477;48.072;11.970;2023-04-24T08:44:01;10.80;86.05
65207;SHT31;58477;48.072;11.970;2023-04-24T08:46:27;10.83;86.30
65207;SHT31;58477;48.072;11.970;2023-04-24T08:48:52;10.77;85.30
65207;SHT31;58477;48.072;11.970;2023-04-24T08:51:19;11.00;85.41
65207;SHT31;58477;48.072;11.970;2023-04-24T08:53:46;11.20;84.92
65207;SHT31;58477;48.072;11.970;2023-04-24T08:56:11;11.26;84.79
65207;SHT31;58477;48.072;11.970;2023-04-24T08:58:38;11.05;85.09
65207;SHT31;58477;48.072;11.970;2023-04-24T09:01:04;11.12;85.06
65207;SHT31;58477;48.072;11.970;2023-04-24T09:03:31;11.24;85.14
65207;SHT31;58477;48.072;11.970;2023-04-24T09:05:57;11.23;84.39
65207;SHT31;58477;48.072;11.970;2023-04-24T09:08:24;11.13;84.84
65207;SHT31;58477;48.072;11.970;2023-04-24T09:10:50;11.07;85.06
65207;SHT31;58477;48.072;11.970;2023-04-24T09:13:16;10.95;85.72
65207;SHT31;58477;48.072;11.970;2023-04-24T09:15:42;10.62;87.17
65207;SHT31;58477;48.072;11.970;2023-04-24T09:18:07;9.95;87.37
65207;SHT31;58477;48.072;11.970;2023-04-24T09:20:33;9.83;87.24
65207;SHT31;58477;48.072;11.970;2023-04-24T09:23:00;9.73;86.47
65207;SHT31;58477;48.072;11.970;2023-04-24T09:25:32;10.01;86.70
65207;SHT31;58477;48.072;11.970;2023-04-24T09:28:03;10.21;85.28
65207;SHT31;58477;48.072;11.970;2023-04-24T09:30:28;10.75;85.22
65207;SHT31;58477;48.072;11.970;2023-04-24T09:33:13;11.03;83.01
65207;SHT31;58477;48.072;11.970;2023-04-24T09:35:50;11.17;83.02
65207;SHT31;58477;48.072;11.970;2023-04-24T09:38:17;11.28;81.16
65207;SHT31;58477;48.072;11.970;2023-04-24T09:40:42;11.19;82.32
65207;SHT31;58477;48.072;11.970;2023-04-24T09:43:10;10.76;80.51
65207;SHT31;58477;48.072;11.970;2023-04-24T09:45:38;11.19;82.90
65207;SHT31;58477;48.072;11.970;2023-04-24T09:48:04;10.92;80.92
65207;SHT31;58477;48.072;11.970;2023-04-24T09:50:32;10.95;81.82
65207;SHT31;58477;48.072;11.970;2023-04-24T09:52:59;11.02;81.97
65207;SHT31;58477;48.072;11.970;2023-04-24T09:55:26;11.37;81.81
65207;SHT31;58477;48.072;11.970;2023-04-24T09:57:55;11.78;79.13
65207;SHT31;58477;48.072;11.970;2023-04-24T10:00:25;12.12;79.30
65207;SHT31;58477;48.072;11.970;2023-04-24T10:02:59;12.36;79.27
65207;SHT31;58477;48.072;11.970;2023-04-24T10:05:31;12.42;77.79
65207;SHT31;58477;48.072;11.970;2023-04-24T10:08:06;12.65;78.43
65207;SHT31;58477;48.072;11.970;2023-04-24T10:10:33;12.50;76.64
65207;SHT31;58477;48.072;11.970;2023-04-24T10:13:00;12.49;77.98
65207;SHT31;58477;48.072;11.970;2023-04-24T10:15:26;12.89;76.82
65207;SHT31;58477;48.072;11.970;2023-04-24T10:17:52;13.31;76.12
65207;SHT31;58477;48.072;11.970;2023-04-24T10:20:21;13.51;75.70
65207;SHT31;58477;48.072;11.970;2023-04-24T10:22:53;14.04;74.11
65207;SHT31;58477;48.072;11.970;2023-04-24T10:25:21;14.00;74.06
65207;SHT31;58477;48.072;11.970;2023-04-24T10:27:47;14.32;72.43
65207;SHT31;58477;48.072;11.970;2023-04-24T10:30:13;14.70;70.32
65207;SHT31;58477;48.072;11.970;2023-04-24T10:32:39;15.20;69.07
65207;SHT31;58477;48.072;11.970;2023-04-24T10:35:09;14.39;68.21
65207;SHT31;58477;48.072;11.970;2023-04-24T10:37:58;14.32;70.80
65207;SHT31;58477;48.072;11.970;2023-04-24T10:40:30;14.72;70.42
65207;SHT31;58477;48.072;11.970;2023-04-24T10:42:56;14.87;68.91
65207;SHT31;58477;48.072;11.970;2023-04-24T10:45:23;13.77;71.04
65207;SHT31;58477;48.072;11.970;2023-04-24T10:48:02;13.43;72.95
65207;SHT31;58477;48.072;11.970;2023-04-24T10:50:34;13.60;73.64
65207;SHT31;58477;48.072;11.970;2023-04-24T10:53:09;13.64;72.85
65207;SHT31;58477;48.072;11.970;2023-04-24T10:55:48;13.54;72.83
65207;SHT31;58477;48.072;11.970;2023-04-24T10:58:14;13.55;73.24
65207;SHT31;58477;48.072;11.970;2023-04-24T11:00:42;13.28;71.65
65207;SHT31;58477;48.072;11.970;2023-04-24T11:03:29;13.02;73.43
65207;SHT31;58477;48.072;11.970;2023-04-24T11:11:12;13.04;74.78
65207;SHT31;58477;48.072;11.970;2023-04-24T11:16:29;12.90;75.15
65207;SHT31;58477;48.072;11.970;2023-04-24T11:19:04;12.52;75.74
65207;SHT31;58477;48.072;11.970;2023-04-24T11:21:48;12.65;76.22
65207;SHT31;58477;48.072;11.970;2023-04-24T11:27:19;10.79;84.09
65207;SHT31;58477;48.072;11.970;2023-04-24T11:35:00;9.93;86.82
65207;SHT31;58477;48.072;11.970;2023-04-24T11:39:59;10.48;85.88
65207;SHT31;58477;48.072;11.970;2023-04-24T11:42:25;10.62;83.09
65207;SHT31;58477;48.072;11.970;2023-04-24T11:44:54;11.15;84.87
65207;SHT31;58477;48.072;11.970;2023-04-24T11:47:30;11.80;82.09
65207;SHT31;58477;48.072;11.970;2023-04-24T11:49:57;12.12;80.40
65207;SHT31;58477;48.072;11.970;2023-04-24T11:52:23;12.28;79.39
65207;SHT31;58477;48.072;11.970;2023-04-24T11:54:51;12.93;79.37
65207;SHT31;58477;48.072;11.970;2023-04-24T11:57:19;14.15;78.88
65207;SHT31;58477;48.072;11.970;2023-04-24T11:59:45;14.76;73.81
65207;SHT31;58477;48.072;11.970;2023-04-24T12:02:25;14.72;74.62
65207;SHT31;58477;48.072;11.970;2023-04-24T12:04:52;14.38;76.42
65207;SHT31;58477;48.072;11.970;2023-04-24T12:07:17;14.00;75.43
65207;SHT31;58477;48.072;11.970;2023-04-24T12:10:03;12.96;76.72
65207;SHT31;58477;48.072;11.970;2023-04-24T12:12:30;12.60;75.99
65207;SHT31;58477;48.072;11.970;2023-04-24T12:14:57;12.80;77.23
65207;SHT31;58477;48.072;11.970;2023-04-24T12:17:30;13.23;76.42
65207;SHT31;58477;48.072;11.970;2023-04-24T12:20:04;13.24;76.08
65207;SHT31;58477;48.072;11.970;2023-04-24T12:22:51;12.80;74.98
65207;SHT31;58477;48.072;11.970;2023-04-24T12:25:19;13.03;78.06
65207;SHT31;58477;48.072;11.970;2023-04-24T12:27:45;12.97;77.23
65207;SHT31;58477;48.072;11.970;2023-04-24T12:30:13;12.95;76.89
65207;SHT31;58477;48.072;11.970;2023-04-24T12:32:47;12.45;76.95
65207;SHT31;58477;48.072;11.970;2023-04-24T12:35:12;11.98;76.92
65207;SHT31;58477;48.072;11.970;2023-04-24T12:37:38;11.38;78.47
65207;SHT31;58477;48.072;11.970;2023-04-24T12:40:12;10.29;84.35
65207;SHT31;58477;48.072;11.970;2023-04-24T12:42:46;10.05;86.35
65207;SHT31;58477;48.072;11.970;2023-04-24T12:45:12;9.78;86.01
65207;SHT31;58477;48.072;11.970;2023-04-24T12:47:38;9.91;87.90
65207;SHT31;58477;48.072;11.970;2023-04-24T12:50:05;10.05;87.50
65207;SHT31;58477;48.072;11.970;2023-04-24T12:52:31;10.04;86.39
65207;SHT31;58477;48.072;11.970;2023-04-24T12:55:00;10.18;87.69
65207;SHT31;58477;48.072;11.970;2023-04-24T12:57:27;10.14;86.31
65207;SHT31;58477;48.072;11.970;2023-04-24T12:59:55;10.19;85.34
65207;SHT31;58477;48.072;11.970;2023-04-24T13:02:22;10.37;85.61
65207;SHT31;58477;48.072;11.970;2023-04-24T13:04:48;10.59;84.54
65207;SHT31;58477;48.072;11.970;2023-04-24T13:07:14;10.71;83.39
65207;SHT31;58477;48.072;11.970;2023-04-24T13:09:40;11.10;84.20
65207;SHT31;58477;48.072;11.970;2023-04-24T13:12:06;11.13;84.26
65207;SHT31;58477;48.072;11.970;2023-04-24T13:18:19;10.77;84.08
65207;SHT31;58477;48.072;11.970;2023-04-24T13:20:45;10.22;84.85
65207;SHT31;58477;48.072;11.970;2023-04-24T13:23:12;9.80;86.47
65207;SHT31;58477;48.072;11.970;2023-04-24T13:25:37;9.67;86.27
65207;SHT31;58477;48.072;11.970;2023-04-24T13:28:04;9.93;85.81
65207;SHT31;58477;48.072;11.970;2023-04-24T13:30:29;10.14;84.72
65207;SHT31;58477;48.072;11.970;2023-04-24T13:32:56;10.63;84.84
65207;SHT31;58477;48.072;11.970;2023-04-24T13:35:21;10.76;84.55
65207;SHT31;58477;48.072;11.970;2023-04-24T13:37:46;10.69;82.60
65207;SHT31;58477;48.072;11.970;2023-04-24T13:40:12;10.66;81.84
65207;SHT31;58477;48.072;11.970;2023-04-24T13:42:37;10.89;82.88
65207;SHT31;58477;48.072;11.970;2023-04-24T13:45:03;11.00;82.95
65207;SHT31;58477;48.072;11.970;2023-04-24T13:47:29;10.93;83.36
65207;SHT31;58477;48.072;11.970;2023-04-24T13:49:54;11.06;82.44
65207;SHT31;58477;48.072;11.970;2023-04-24T13:52:20;11.10;82.26
65207;SHT31;58477;48.072;11.970;2023-04-24T13:54:45;11.10;81.76
65207;SHT31;58477;48.072;11.970;2023-04-24T13:57:10;10.86;81.82
65207;SHT31;58477;48.072;11.970;2023-04-24T13:59:36;11.00;83.09
65207;SHT31;58477;48.072;11.970;2023-04-24T14:02:02;11.22;83.55
65207;SHT31;58477;48.072;11.970;2023-04-24T14:04:27;11.13;80.98
65207;SHT31;58477;48.072;11.970;2023-04-24T14:06:53;11.36;81.93
65207;SHT31;58477;48.072;11.970;2023-04-24T14:09:18;11.26;81.74
65207;SHT31;58477;48.072;11.970;2023-04-24T14:11:43;11.17;83.00
65207;SHT31;58477;48.072;11.970;2023-04-24T14:14:09;11.17;83.95
65207;SHT31;58477;48.072;11.970;2023-04-24T14:16:34;10.96;82.84
65207;SHT31;58477;48.072;11.970;2023-04-24T14:19:00;10.55;83.87
65207;SHT31;58477;48.072;11.970;2023-04-24T14:21:25;10.39;83.46
65207;SHT31;58477;48.072;11.970;2023-04-24T14:23:51;10.22;85.15
65207;SHT31;58477;48.072;11.970;2023-04-24T14:26:16;10.19;85.54
65207;SHT31;58477;48.072;11.970;2023-04-24T14:28:41;10.19;83.16
65207;SHT31;58477;48.072;11.970;2023-04-24T14:31:07;10.07;83.25
65207;SHT31;58477;48.072;11.970;2023-04-24T14:33:33;10.27;85.73
65207;SHT31;58477;48.072;11.970;2023-04-24T14:35:58;10.38;84.99
65207;SHT31;58477;48.072;11.970;2023-04-24T14:38:24;10.59;83.44
65207;SHT31;58477;48.072;11.970;2023-04-24T14:40:49;10.92;83.29
65207;SHT31;58477;48.072;11.970;2023-04-24T14:43:15;10.97;81.45
65207;SHT31;58477;48.072;11.970;2023-04-24T14:45:40;11.17;81.82
65207;SHT31;58477;48.072;11.970;2023-04-24T14:48:06;11.19;81.39
65207;SHT31;58477;48.072;11.970;2023-04-24T14:50:33;11.06;82.24
65207;SHT31;58477;48.072;11.970;2023-04-24T14:52:58;10.91;81.16
65207;SHT31;58477;48.072;11.970;2023-04-24T14:55:25;10.97;81.70
65207;SHT31;58477;48.072;11.970;2023-04-24T14:57:51;11.07;81.71
65207;SHT31;58477;48.072;11.970;2023-04-24T15:00:17;11.00;81.07
65207;SHT31;58477;48.072;11.970;2023-04-24T15:02:42;10.88;81.02
65207;SHT31;58477;48.072;11.970;2023-04-24T15:05:10;10.76;79.66
65207;SHT31;58477;48.072;11.970;2023-04-24T15:07:35;10.68;80.69
65207;SHT31;58477;48.072;11.970;2023-04-24T15:10:02;10.58;81.68
65207;SHT31;58477;48.072;11.970;2023-04-24T15:12:27;10.58;82.34
65207;SHT31;58477;48.072;11.970;2023-04-24T15:14:54;10.62;82.18
65207;SHT31;58477;48.072;11.970;2023-04-24T15:17:19;10.69;80.97
65207;SHT31;58477;48.072;11.970;2023-04-24T15:19:45;10.83;81.02
65207;SHT31;58477;48.072;11.970;2023-04-24T15:22:10;11.00;80.67
65207;SHT31;58477;48.072;11.970;2023-04-24T15:24:36;11.15;81.85
65207;SHT31;58477;48.072;11.970;2023-04-24T15:27:01;11.07;80.69
65207;SHT31;58477;48.072;11.970;2023-04-24T15:29:28;11.20;78.49
65207;SHT31;58477;48.072;11.970;2023-04-24T15:31:53;11.28;78.39
65207;SHT31;58477;48.072;11.970;2023-04-24T15:34:19;11.47;75.61
65207;SHT31;58477;48.072;11.970;2023-04-24T15:36:44;11.75;75.32
65207;SHT31;58477;48.072;11.970;2023-04-24T15:39:09;12.05;74.15
65207;SHT31;58477;48.072;11.970;2023-04-24T15:41:35;12.17;70.58
65207;SHT31;58477;48.072;11.970;2023-04-24T15:44:00;12.77;71.03
65207;SHT31;58477;48.072;11.970;2023-04-24T15:46:26;12.75;67.67